WetterOnline ( https://www.wetteronline.de )

Wetter aktuell Ellingen

Aktuelles Wetter: Weißenburg (424m)

6-stündlich | Neueste Meldungen
Ortszeit Temperatur Wetter
Di, 04.10. 20:00 11.3° C leicht bewölkt
Di, 04.10. 14:00 13.7° C wolkig
Di, 04.10. 8:00 4.1° C bedeckt
Di, 04.10. 2:00 5.2° C Nebel
Mo, 03.10. 20:00 10.4° C bewölkt
Mo, 03.10. 14:00 13.4° C leicht bewölkt
Mo, 03.10. 8:00 9.2° C wolkig
Mo, 03.10. 2:00 10.6° C bedeckt
Ortszeit Temperatur Wetter
Mi, 05.10. 1:00 8.5° C leicht bewölkt
Mi, 05.10. 0:50 8.5° C leicht bewölkt
Mi, 05.10. 0:40 8.6° C wolkig
Mi, 05.10. 0:30 9.0° C wolkig
Mi, 05.10. 0:20 9.0° C wolkig
Mi, 05.10. 0:10 8.9° C bedeckt
Mi, 05.10. 0:00 8.3° C leicht bewölkt
Di, 04.10. 23:30 8.3° C leicht bewölkt
Di, 04.10. 23:00 9.7° C wolkig
Di, 04.10. 22:30 8.5° C wolkig
Di, 04.10. 22:00 8.9° C wolkig
Ortszeit Relative Feuchte Sichtweite
Di, 04.10. 20:00 82% 60 km
Di, 04.10. 14:00 65% 65 km
Di, 04.10. 8:00 98% 30 km
Di, 04.10. 2:00 99% 19 km
Mo, 03.10. 20:00 84% 60 km
Mo, 03.10. 14:00 66% 60 km
Mo, 03.10. 8:00 96% 13 km
Mo, 03.10. 2:00 93% 24 km
Ortszeit Relative Feuchte Sichtweite
Mi, 05.10. 1:00 91% 45 km
Mi, 05.10. 0:50 91% -
Mi, 05.10. 0:40 90% -
Mi, 05.10. 0:30 88% 50 km
Mi, 05.10. 0:20 88% -
Mi, 05.10. 0:10 89% -
Mi, 05.10. 0:00 92% 35 km
Di, 04.10. 23:30 92% 50 km
Di, 04.10. 23:00 87% 55 km
Di, 04.10. 22:30 92% 40 km
Di, 04.10. 22:00 90% 45 km
Ortszeit Niederschlagsmenge Niederschlagsart
Di, 04.10. 20:00 0.0 l/m2 in 12 Std. -
Di, 04.10. 14:00 0.0 l/m2 in 6 Std. -
Di, 04.10. 8:00 0.0 l/m2 in 12 Std. -
Di, 04.10. 2:00 0.0 l/m2 in 6 Std. -
Mo, 03.10. 20:00 0.0 l/m2 in 12 Std. -
Mo, 03.10. 14:00 0.0 l/m2 in 6 Std. -
Mo, 03.10. 8:00 0.1 l/m2 in 12 Std. -
Mo, 03.10. 2:00 0.1 l/m2 in 6 Std. Regen
Ortszeit Niederschlagsmenge Niederschlagsart
Mi, 05.10. 1:00 0.0 l/m2 in 1 Std. -
Mi, 05.10. 0:50 keine Meldung -
Mi, 05.10. 0:40 keine Meldung -
Mi, 05.10. 0:30 0.0 l/m2 in 1 Std. -
Mi, 05.10. 0:20 keine Meldung -
Mi, 05.10. 0:10 keine Meldung -
Mi, 05.10. 0:00 0.0 l/m2 in 1 Std. -
Di, 04.10. 23:30 0.0 l/m2 in 1 Std. -
Di, 04.10. 23:00 0.0 l/m2 in 1 Std. -
Di, 04.10. 22:30 0.0 l/m2 in 1 Std. -
Di, 04.10. 22:00 0.0 l/m2 in 1 Std. -
Ortszeit Stärke Spitze Richtung
km/h Bft. km/h Grad Sektor
Di, 04.10. 20:00 7 2 18 170° S
Di, 04.10. 14:00 11 2 22 180° S
Di, 04.10. 8:00 2 1 13 260° W
Di, 04.10. 2:00 7 2 14 200° S
Mo, 03.10. 20:00 7 2 25 280° W
Mo, 03.10. 14:00 14 3 25 290° W
Mo, 03.10. 8:00 7 2 22 300° NW
Mo, 03.10. 2:00 14 3 25 290° W
Ortszeit Stärke Spitze Richtung
km/h Bft. km/h Grad Sektor
Mi, 05.10. 1:00 11 2 14 190° S
Mi, 05.10. 0:50 11 2 - 190° S
Mi, 05.10. 0:40 11 2 - 190° S
Mi, 05.10. 0:30 11 2 14 190° S
Mi, 05.10. 0:20 11 2 - 190° S
Mi, 05.10. 0:10 9 2 - 190° S
Mi, 05.10. 0:00 4 1 14 210° SW
Di, 04.10. 23:30 7 2 14 190° S
Di, 04.10. 23:00 14 3 18 180° S
Di, 04.10. 22:30 9 2 13 180° S
Di, 04.10. 22:00 9 2 13 200° S
Ortszeit Untergrenze Bedeckung Gattung
total tief tief mittel hoch
Di, 04.10. 20:00 10500 m 3/8 0/8 - - -
Di, 04.10. 14:00 5400 m 8/8 8/8 - - -
Di, 04.10. 8:00 4500 m 8/8 8/8 - - -
Di, 04.10. 2:00 10500 m 7/8 0/8 - - -
Mo, 03.10. 20:00 1380 m 7/8 7/8 - - -
Mo, 03.10. 14:00 870 m 3/8 3/8 - - -
Mo, 03.10. 8:00 300 m 6/8 6/8 - - -
Mo, 03.10. 2:00 360 m 8/8 8/8 - - -
Ortszeit Bedeckungsgrad in Achtel und Wolkenuntergrenze
Mi, 05.10. 1:00 5(9000m) 6(10500m)
Mi, 05.10. 0:50 5(9000m) 6(10500m)
Mi, 05.10. 0:40 6
Mi, 05.10. 0:30 7(9000m)
Mi, 05.10. 0:20 7(9000m)
Mi, 05.10. 0:10 8
Mi, 05.10. 0:00 5(9000m) 6(10500m)
Di, 04.10. 23:30 3(10500m)
Di, 04.10. 23:00 2(9000m) 7(10500m) 7(10500m)
Di, 04.10. 22:30 8(10500m)
Di, 04.10. 22:00 7(10500m)
Ortszeit Luftdruck NN (hPa) Tendenz (hPa in 3 Std.)
Di, 04.10. 20:00 1024 - 0,2
Di, 04.10. 14:00 1024 - 0,5
Di, 04.10. 8:00 1026 - 0,2
Di, 04.10. 2:00 1027 - 1,2
Mo, 03.10. 20:00 1027 - 0,2
Mo, 03.10. 14:00 1027 - 0,2
Mo, 03.10. 8:00 1027 + 0,8
Mo, 03.10. 2:00 1024 + 1,5
Ortszeit Luftdruck NN (hPa) Tendenz (hPa in 3 Std.)
Mi, 05.10. 1:00 1025 + 0,2
Mi, 05.10. 0:50 1025 keine Meldung
Mi, 05.10. 0:40 1025 keine Meldung
Mi, 05.10. 0:30 1025 + 0,6
Mi, 05.10. 0:20 1025 keine Meldung
Mi, 05.10. 0:10 1025 keine Meldung
Mi, 05.10. 0:00 1025 + 0,8
Di, 04.10. 23:30 1025 + 0,6
Di, 04.10. 23:00 1024 + 0,2
Di, 04.10. 22:30 1024 + 0,3
Di, 04.10. 22:00 1024 + 0,5
Ortszeit Schneehöhe (cm)
Di, 04.10. 20:00 0
Di, 04.10. 14:00 0
Di, 04.10. 8:00 0
Di, 04.10. 2:00 0
Mo, 03.10. 20:00 0
Mo, 03.10. 14:00 0
Mo, 03.10. 8:00 0
Mo, 03.10. 2:00 0
Ortszeit Schneehöhe (cm)
Mi, 05.10. 1:00 0
Mi, 05.10. 0:50 0
Mi, 05.10. 0:40 0
Mi, 05.10. 0:30 0
Mi, 05.10. 0:20 0
Mi, 05.10. 0:10 0
Mi, 05.10. 0:00 0
Di, 04.10. 23:30 0
Di, 04.10. 23:00 0
Di, 04.10. 22:30 0
Di, 04.10. 22:00 0
Link zu dieser Seite / Seite empfehlen

Das Wetter in ...